sensor_id;sensor_type;location;lat;lon;timestamp;P1;durP1;ratioP1;P2;durP2;ratioP2
438;SDS011;206;48.782;9.252;2022-12-07T00:00:41;7.83;;;6.70;;
438;SDS011;206;48.782;9.252;2022-12-07T00:03:06;7.20;;;5.80;;
438;SDS011;206;48.782;9.252;2022-12-07T00:05:32;9.70;;;6.10;;
438;SDS011;206;48.782;9.252;2022-12-07T00:07:58;7.17;;;6.80;;
438;SDS011;206;48.782;9.252;2022-12-07T00:10:23;6.67;;;5.90;;
438;SDS011;206;48.782;9.252;2022-12-07T00:12:49;9.30;;;7.40;;
438;SDS011;206;48.782;9.252;2022-12-07T00:15:15;14.40;;;7.63;;
438;SDS011;206;48.782;9.252;2022-12-07T00:17:40;9.03;;;5.93;;
438;SDS011;206;48.782;9.252;2022-12-07T00:20:06;8.93;;;6.33;;
438;SDS011;206;48.782;9.252;2022-12-07T00:22:32;5.77;;;5.40;;
438;SDS011;206;48.782;9.252;2022-12-07T00:24:58;8.60;;;6.03;;
438;SDS011;206;48.782;9.252;2022-12-07T00:27:23;8.63;;;6.93;;
438;SDS011;206;48.782;9.252;2022-12-07T00:29:49;7.93;;;6.60;;
438;SDS011;206;48.782;9.252;2022-12-07T00:32:14;6.87;;;6.27;;
438;SDS011;206;48.782;9.252;2022-12-07T00:34:40;6.83;;;6.40;;
438;SDS011;206;48.782;9.252;2022-12-07T00:37:05;9.13;;;7.33;;
438;SDS011;206;48.782;9.252;2022-12-07T00:39:31;8.60;;;7.47;;
438;SDS011;206;48.782;9.252;2022-12-07T00:41:56;7.70;;;6.70;;
438;SDS011;206;48.782;9.252;2022-12-07T00:44:22;7.43;;;6.93;;
438;SDS011;206;48.782;9.252;2022-12-07T00:46:47;10.53;;;7.60;;
438;SDS011;206;48.782;9.252;2022-12-07T00:49:13;6.63;;;6.10;;
438;SDS011;206;48.782;9.252;2022-12-07T00:51:39;11.03;;;6.90;;
438;SDS011;206;48.782;9.252;2022-12-07T00:54:04;7.93;;;6.93;;
438;SDS011;206;48.782;9.252;2022-12-07T00:56:30;10.60;;;8.40;;
438;SDS011;206;48.782;9.252;2022-12-07T00:58:56;9.43;;;7.80;;
438;SDS011;206;48.782;9.252;2022-12-07T01:01:24;9.87;;;8.40;;
438;SDS011;206;48.782;9.252;2022-12-07T01:03:52;9.57;;;7.23;;
438;SDS011;206;48.782;9.252;2022-12-07T01:06:18;6.90;;;6.50;;
438;SDS011;206;48.782;9.252;2022-12-07T01:08:44;10.70;;;7.60;;
438;SDS011;206;48.782;9.252;2022-12-07T01:11:12;7.97;;;6.63;;
438;SDS011;206;48.782;9.252;2022-12-07T01:13:40;10.43;;;7.70;;
438;SDS011;206;48.782;9.252;2022-12-07T01:16:07;9.30;;;6.93;;
438;SDS011;206;48.782;9.252;2022-12-07T01:18:34;9.23;;;7.13;;
438;SDS011;206;48.782;9.252;2022-12-07T01:21:04;9.60;;;8.30;;
438;SDS011;206;48.782;9.252;2022-12-07T01:23:32;9.80;;;7.80;;
438;SDS011;206;48.782;9.252;2022-12-07T01:26:00;8.00;;;7.60;;
438;SDS011;206;48.782;9.252;2022-12-07T01:28:28;9.80;;;7.60;;
438;SDS011;206;48.782;9.252;2022-12-07T01:30:58;8.73;;;7.57;;
438;SDS011;206;48.782;9.252;2022-12-07T01:33:28;9.70;;;7.63;;
438;SDS011;206;48.782;9.252;2022-12-07T01:36:13;13.40;;;7.40;;
438;SDS011;206;48.782;9.252;2022-12-07T01:38:41;8.17;;;7.37;;
438;SDS011;206;48.782;9.252;2022-12-07T01:41:07;9.83;;;8.17;;
438;SDS011;206;48.782;9.252;2022-12-07T01:43:33;9.30;;;8.47;;
438;SDS011;206;48.782;9.252;2022-12-07T01:46:00;12.67;;;7.70;;
438;SDS011;206;48.782;9.252;2022-12-07T01:48:34;9.40;;;7.53;;
438;SDS011;206;48.782;9.252;2022-12-07T01:51:09;9.10;;;8.60;;
438;SDS011;206;48.782;9.252;2022-12-07T01:53:38;10.83;;;8.60;;
438;SDS011;206;48.782;9.252;2022-12-07T01:56:07;8.17;;;6.83;;
438;SDS011;206;48.782;9.252;2022-12-07T01:58:35;8.40;;;7.30;;
438;SDS011;206;48.782;9.252;2022-12-07T02:01:02;9.40;;;7.87;;
438;SDS011;206;48.782;9.252;2022-12-07T02:03:32;9.40;;;7.53;;
438;SDS011;206;48.782;9.252;2022-12-07T02:06:02;10.67;;;8.77;;
438;SDS011;206;48.782;9.252;2022-12-07T02:08:30;10.47;;;8.03;;
438;SDS011;206;48.782;9.252;2022-12-07T02:10:56;10.93;;;8.73;;
438;SDS011;206;48.782;9.252;2022-12-07T02:13:22;9.17;;;8.70;;
438;SDS011;206;48.782;9.252;2022-12-07T02:15:55;9.40;;;7.27;;
438;SDS011;206;48.782;9.252;2022-12-07T02:18:51;9.53;;;7.87;;
438;SDS011;206;48.782;9.252;2022-12-07T02:21:37;7.67;;;7.10;;
438;SDS011;206;48.782;9.252;2022-12-07T02:29:45;10.70;;;8.50;;
438;SDS011;206;48.782;9.252;2022-12-07T02:32:13;10.87;;;8.20;;
438;SDS011;206;48.782;9.252;2022-12-07T02:34:51;10.47;;;8.37;;
438;SDS011;206;48.782;9.252;2022-12-07T02:40:13;9.80;;;7.33;;
438;SDS011;206;48.782;9.252;2022-12-07T02:42:46;8.60;;;7.07;;
438;SDS011;206;48.782;9.252;2022-12-07T02:45:16;16.90;;;8.00;;
438;SDS011;206;48.782;9.252;2022-12-07T02:47:46;8.10;;;7.30;;
438;SDS011;206;48.782;9.252;2022-12-07T02:50:18;11.50;;;7.57;;
438;SDS011;206;48.782;9.252;2022-12-07T02:52:46;7.57;;;6.73;;
438;SDS011;206;48.782;9.252;2022-12-07T02:55:12;8.57;;;7.17;;
438;SDS011;206;48.782;9.252;2022-12-07T03:00:25;9.13;;;7.83;;
438;SDS011;206;48.782;9.252;2022-12-07T03:03:03;10.70;;;7.60;;
438;SDS011;206;48.782;9.252;2022-12-07T03:10:58;10.27;;;8.60;;
438;SDS011;206;48.782;9.252;2022-12-07T03:21:27;13.83;;;9.10;;
438;SDS011;206;48.782;9.252;2022-12-07T03:23:58;12.13;;;8.07;;
438;SDS011;206;48.782;9.252;2022-12-07T03:26:28;9.77;;;8.17;;
438;SDS011;206;48.782;9.252;2022-12-07T03:28:59;7.67;;;7.00;;
438;SDS011;206;48.782;9.252;2022-12-07T03:31:34;14.13;;;8.23;;
438;SDS011;206;48.782;9.252;2022-12-07T03:34:11;9.27;;;7.60;;
438;SDS011;206;48.782;9.252;2022-12-07T03:36:47;9.20;;;7.60;;
438;SDS011;206;48.782;9.252;2022-12-07T03:39:37;11.27;;;8.00;;
438;SDS011;206;48.782;9.252;2022-12-07T03:42:04;10.17;;;8.20;;
438;SDS011;206;48.782;9.252;2022-12-07T03:44:32;8.77;;;7.57;;
438;SDS011;206;48.782;9.252;2022-12-07T03:47:01;10.00;;;7.57;;
438;SDS011;206;48.782;9.252;2022-12-07T03:49:43;8.57;;;6.80;;
438;SDS011;206;48.782;9.252;2022-12-07T03:52:44;7.73;;;6.70;;
438;SDS011;206;48.782;9.252;2022-12-07T03:55:29;10.17;;;7.40;;
438;SDS011;206;48.782;9.252;2022-12-07T03:58:02;9.50;;;7.20;;
438;SDS011;206;48.782;9.252;2022-12-07T04:00:34;8.60;;;7.63;;
438;SDS011;206;48.782;9.252;2022-12-07T04:03:00;14.40;;;8.10;;
438;SDS011;206;48.782;9.252;2022-12-07T04:05:25;9.33;;;7.47;;
438;SDS011;206;48.782;9.252;2022-12-07T04:07:51;11.07;;;8.40;;
438;SDS011;206;48.782;9.252;2022-12-07T04:10:17;11.40;;;7.30;;
438;SDS011;206;48.782;9.252;2022-12-07T04:12:43;8.87;;;7.07;;
438;SDS011;206;48.782;9.252;2022-12-07T04:15:09;9.33;;;7.47;;
438;SDS011;206;48.782;9.252;2022-12-07T04:17:35;7.27;;;6.23;;
438;SDS011;206;48.782;9.252;2022-12-07T04:20:01;8.87;;;7.80;;
438;SDS011;206;48.782;9.252;2022-12-07T04:22:28;9.33;;;7.40;;
438;SDS011;206;48.782;9.252;2022-12-07T04:24:54;11.40;;;7.40;;
438;SDS011;206;48.782;9.252;2022-12-07T04:27:20;8.77;;;6.93;;
438;SDS011;206;48.782;9.252;2022-12-07T04:29:45;11.67;;;7.10;;
438;SDS011;206;48.782;9.252;2022-12-07T04:32:11;8.00;;;7.13;;
438;SDS011;206;48.782;9.252;2022-12-07T04:34:36;7.97;;;7.03;;
438;SDS011;206;48.782;9.252;2022-12-07T04:37:02;7.47;;;7.10;;
438;SDS011;206;48.782;9.252;2022-12-07T04:39:28;8.57;;;7.00;;
438;SDS011;206;48.782;9.252;2022-12-07T04:41:55;9.83;;;7.23;;
438;SDS011;206;48.782;9.252;2022-12-07T04:44:22;7.73;;;7.00;;
438;SDS011;206;48.782;9.252;2022-12-07T04:46:49;7.70;;;6.23;;
438;SDS011;206;48.782;9.252;2022-12-07T04:49:15;8.97;;;7.07;;
438;SDS011;206;48.782;9.252;2022-12-07T04:51:42;10.57;;;7.23;;
438;SDS011;206;48.782;9.252;2022-12-07T04:54:07;10.93;;;7.10;;
438;SDS011;206;48.782;9.252;2022-12-07T04:56:33;9.13;;;7.10;;
438;SDS011;206;48.782;9.252;2022-12-07T04:59:00;9.03;;;7.30;;
438;SDS011;206;48.782;9.252;2022-12-07T05:01:26;10.23;;;8.47;;
438;SDS011;206;48.782;9.252;2022-12-07T05:03:52;11.83;;;8.73;;
438;SDS011;206;48.782;9.252;2022-12-07T05:06:18;9.20;;;7.70;;
438;SDS011;206;48.782;9.252;2022-12-07T05:08:44;12.37;;;6.27;;
438;SDS011;206;48.782;9.252;2022-12-07T05:11:10;10.10;;;8.23;;
438;SDS011;206;48.782;9.252;2022-12-07T05:13:59;10.10;;;7.50;;
438;SDS011;206;48.782;9.252;2022-12-07T05:16:25;11.30;;;8.87;;
438;SDS011;206;48.782;9.252;2022-12-07T05:18:51;13.53;;;7.27;;
438;SDS011;206;48.782;9.252;2022-12-07T05:21:16;9.20;;;8.43;;
438;SDS011;206;48.782;9.252;2022-12-07T05:23:42;9.17;;;7.07;;
438;SDS011;206;48.782;9.252;2022-12-07T05:26:08;10.17;;;7.87;;
438;SDS011;206;48.782;9.252;2022-12-07T05:28:33;9.70;;;6.73;;
438;SDS011;206;48.782;9.252;2022-12-07T05:30:59;9.60;;;7.30;;
438;SDS011;206;48.782;9.252;2022-12-07T05:33:24;9.80;;;7.47;;
438;SDS011;206;48.782;9.252;2022-12-07T05:35:50;9.77;;;7.57;;
438;SDS011;206;48.782;9.252;2022-12-07T05:38:15;11.63;;;9.07;;
438;SDS011;206;48.782;9.252;2022-12-07T05:40:41;8.57;;;7.57;;
438;SDS011;206;48.782;9.252;2022-12-07T05:43:06;7.20;;;6.80;;
438;SDS011;206;48.782;9.252;2022-12-07T05:45:32;9.83;;;7.83;;
438;SDS011;206;48.782;9.252;2022-12-07T05:47:58;10.67;;;8.60;;
438;SDS011;206;48.782;9.252;2022-12-07T05:50:23;10.73;;;8.13;;
438;SDS011;206;48.782;9.252;2022-12-07T05:52:49;10.60;;;8.13;;
438;SDS011;206;48.782;9.252;2022-12-07T05:55:14;15.67;;;8.17;;
438;SDS011;206;48.782;9.252;2022-12-07T05:57:40;10.63;;;8.97;;
438;SDS011;206;48.782;9.252;2022-12-07T06:00:25;11.70;;;8.67;;
438;SDS011;206;48.782;9.252;2022-12-07T06:02:51;9.33;;;7.50;;
438;SDS011;206;48.782;9.252;2022-12-07T06:05:17;11.70;;;8.33;;
438;SDS011;206;48.782;9.252;2022-12-07T06:07:42;8.90;;;7.10;;
438;SDS011;206;48.782;9.252;2022-12-07T06:10:08;9.97;;;7.50;;
438;SDS011;206;48.782;9.252;2022-12-07T06:12:34;7.70;;;6.77;;
438;SDS011;206;48.782;9.252;2022-12-07T06:14:59;11.30;;;7.30;;
438;SDS011;206;48.782;9.252;2022-12-07T06:17:25;10.70;;;8.70;;
438;SDS011;206;48.782;9.252;2022-12-07T06:19:51;8.37;;;7.20;;
438;SDS011;206;48.782;9.252;2022-12-07T06:22:17;9.10;;;8.10;;
438;SDS011;206;48.782;9.252;2022-12-07T06:24:42;9.73;;;7.93;;
438;SDS011;206;48.782;9.252;2022-12-07T06:27:08;9.40;;;7.27;;
438;SDS011;206;48.782;9.252;2022-12-07T06:29:35;8.93;;;7.20;;
438;SDS011;206;48.782;9.252;2022-12-07T06:32:00;11.17;;;8.90;;
438;SDS011;206;48.782;9.252;2022-12-07T06:34:26;11.57;;;8.70;;
438;SDS011;206;48.782;9.252;2022-12-07T06:36:52;7.80;;;6.87;;
438;SDS011;206;48.782;9.252;2022-12-07T06:39:21;9.80;;;7.60;;
438;SDS011;206;48.782;9.252;2022-12-07T06:41:47;11.23;;;7.97;;
438;SDS011;206;48.782;9.252;2022-12-07T06:44:13;11.90;;;8.47;;
438;SDS011;206;48.782;9.252;2022-12-07T06:46:39;9.37;;;7.20;;
438;SDS011;206;48.782;9.252;2022-12-07T06:49:04;11.50;;;7.73;;
438;SDS011;206;48.782;9.252;2022-12-07T06:51:31;8.73;;;6.60;;
438;SDS011;206;48.782;9.252;2022-12-07T06:53:57;10.27;;;7.10;;
438;SDS011;206;48.782;9.252;2022-12-07T06:56:23;7.53;;;6.97;;
438;SDS011;206;48.782;9.252;2022-12-07T06:58:49;11.20;;;8.27;;
438;SDS011;206;48.782;9.252;2022-12-07T07:01:16;12.53;;;8.33;;
438;SDS011;206;48.782;9.252;2022-12-07T07:03:43;9.63;;;7.33;;
438;SDS011;206;48.782;9.252;2022-12-07T07:06:10;13.17;;;7.90;;
438;SDS011;206;48.782;9.252;2022-12-07T07:08:36;10.70;;;7.37;;
438;SDS011;206;48.782;9.252;2022-12-07T07:11:03;13.10;;;7.90;;
438;SDS011;206;48.782;9.252;2022-12-07T07:13:29;16.73;;;8.37;;
438;SDS011;206;48.782;9.252;2022-12-07T07:15:55;13.03;;;7.83;;
438;SDS011;206;48.782;9.252;2022-12-07T07:18:21;14.20;;;8.60;;
438;SDS011;206;48.782;9.252;2022-12-07T07:20:47;13.93;;;8.37;;
438;SDS011;206;48.782;9.252;2022-12-07T07:23:12;12.90;;;8.33;;
438;SDS011;206;48.782;9.252;2022-12-07T07:25:38;16.53;;;9.23;;
438;SDS011;206;48.782;9.252;2022-12-07T07:28:04;12.17;;;9.27;;
438;SDS011;206;48.782;9.252;2022-12-07T07:30:30;11.07;;;8.03;;
438;SDS011;206;48.782;9.252;2022-12-07T07:32:56;16.73;;;8.50;;
438;SDS011;206;48.782;9.252;2022-12-07T07:35:23;20.63;;;9.60;;
438;SDS011;206;48.782;9.252;2022-12-07T07:37:49;14.30;;;8.03;;
438;SDS011;206;48.782;9.252;2022-12-07T07:40:15;11.47;;;8.23;;
438;SDS011;206;48.782;9.252;2022-12-07T07:42:40;14.73;;;7.77;;
438;SDS011;206;48.782;9.252;2022-12-07T07:45:06;11.60;;;8.43;;
438;SDS011;206;48.782;9.252;2022-12-07T07:47:32;10.90;;;8.00;;
438;SDS011;206;48.782;9.252;2022-12-07T07:49:58;15.60;;;7.73;;
438;SDS011;206;48.782;9.252;2022-12-07T07:52:23;13.03;;;8.77;;
438;SDS011;206;48.782;9.252;2022-12-07T07:54:49;11.13;;;8.63;;
438;SDS011;206;48.782;9.252;2022-12-07T07:57:15;14.17;;;8.13;;
438;SDS011;206;48.782;9.252;2022-12-07T07:59:42;12.00;;;7.17;;
438;SDS011;206;48.782;9.252;2022-12-07T08:02:09;9.00;;;7.10;;
438;SDS011;206;48.782;9.252;2022-12-07T08:04:40;7.60;;;5.90;;
438;SDS011;206;48.782;9.252;2022-12-07T08:07:05;10.60;;;6.63;;
438;SDS011;206;48.782;9.252;2022-12-07T08:09:31;12.77;;;8.83;;
438;SDS011;206;48.782;9.252;2022-12-07T08:11:57;8.53;;;6.67;;
438;SDS011;206;48.782;9.252;2022-12-07T08:14:23;17.00;;;7.43;;
438;SDS011;206;48.782;9.252;2022-12-07T08:16:49;12.20;;;6.60;;
438;SDS011;206;48.782;9.252;2022-12-07T08:19:15;8.10;;;5.60;;
438;SDS011;206;48.782;9.252;2022-12-07T08:21:40;15.10;;;9.57;;
438;SDS011;206;48.782;9.252;2022-12-07T08:24:06;52.33;;;13.30;;
438;SDS011;206;48.782;9.252;2022-12-07T08:26:32;10.77;;;6.63;;
438;SDS011;206;48.782;9.252;2022-12-07T08:28:58;6.77;;;5.97;;
438;SDS011;206;48.782;9.252;2022-12-07T08:31:24;10.20;;;7.27;;
438;SDS011;206;48.782;9.252;2022-12-07T08:33:49;8.83;;;6.50;;
438;SDS011;206;48.782;9.252;2022-12-07T08:36:15;10.20;;;7.33;;
438;SDS011;206;48.782;9.252;2022-12-07T08:38:41;8.90;;;6.70;;
438;SDS011;206;48.782;9.252;2022-12-07T08:41:07;13.77;;;7.13;;
438;SDS011;206;48.782;9.252;2022-12-07T08:43:33;7.70;;;6.80;;
438;SDS011;206;48.782;9.252;2022-12-07T08:46:19;9.87;;;7.23;;
438;SDS011;206;48.782;9.252;2022-12-07T08:48:49;6.87;;;6.20;;
438;SDS011;206;48.782;9.252;2022-12-07T08:51:30;8.40;;;6.30;;
438;SDS011;206;48.782;9.252;2022-12-07T08:53:56;14.63;;;7.00;;
438;SDS011;206;48.782;9.252;2022-12-07T08:56:26;16.23;;;7.10;;
438;SDS011;206;48.782;9.252;2022-12-07T08:58:51;20.03;;;7.30;;
438;SDS011;206;48.782;9.252;2022-12-07T09:01:17;18.87;;;8.77;;
438;SDS011;206;48.782;9.252;2022-12-07T09:03:43;54.40;;;9.37;;
438;SDS011;206;48.782;9.252;2022-12-07T09:06:09;10.87;;;7.50;;
438;SDS011;206;48.782;9.252;2022-12-07T09:08:35;8.90;;;7.10;;
438;SDS011;206;48.782;9.252;2022-12-07T09:11:05;9.00;;;7.50;;
438;SDS011;206;48.782;9.252;2022-12-07T09:13:31;10.00;;;7.20;;
438;SDS011;206;48.782;9.252;2022-12-07T09:15:56;8.23;;;6.80;;
438;SDS011;206;48.782;9.252;2022-12-07T09:18:22;12.20;;;6.17;;
438;SDS011;206;48.782;9.252;2022-12-07T09:20:49;11.23;;;6.40;;
438;SDS011;206;48.782;9.252;2022-12-07T09:23:14;18.50;;;7.60;;
438;SDS011;206;48.782;9.252;2022-12-07T09:25:40;8.03;;;6.07;;
438;SDS011;206;48.782;9.252;2022-12-07T09:28:06;9.23;;;6.17;;
438;SDS011;206;48.782;9.252;2022-12-07T09:30:31;15.13;;;7.27;;
438;SDS011;206;48.782;9.252;2022-12-07T09:32:57;7.67;;;6.93;;
438;SDS011;206;48.782;9.252;2022-12-07T09:35:23;13.20;;;5.87;;
438;SDS011;206;48.782;9.252;2022-12-07T09:37:49;8.90;;;5.53;;
438;SDS011;206;48.782;9.252;2022-12-07T09:40:16;10.20;;;7.00;;
438;SDS011;206;48.782;9.252;2022-12-07T09:42:49;9.30;;;6.43;;
438;SDS011;206;48.782;9.252;2022-12-07T09:45:21;10.30;;;6.60;;
438;SDS011;206;48.782;9.252;2022-12-07T09:47:51;10.07;;;6.73;;
438;SDS011;206;48.782;9.252;2022-12-07T09:50:24;9.80;;;6.73;;
438;SDS011;206;48.782;9.252;2022-12-07T09:52:51;10.07;;;7.73;;
438;SDS011;206;48.782;9.252;2022-12-07T09:55:25;7.10;;;5.57;;
438;SDS011;206;48.782;9.252;2022-12-07T09:57:53;6.77;;;5.73;;
438;SDS011;206;48.782;9.252;2022-12-07T10:00:20;17.30;;;6.50;;
438;SDS011;206;48.782;9.252;2022-12-07T10:02:50;9.80;;;5.87;;
438;SDS011;206;48.782;9.252;2022-12-07T10:05:58;8.60;;;5.60;;
438;SDS011;206;48.782;9.252;2022-12-07T10:08:17;7.43;;;6.20;;
438;SDS011;206;48.782;9.252;2022-12-07T10:10:44;7.50;;;5.07;;
438;SDS011;206;48.782;9.252;2022-12-07T10:13:20;9.67;;;6.40;;
438;SDS011;206;48.782;9.252;2022-12-07T10:18:32;10.37;;;7.70;;
438;SDS011;206;48.782;9.252;2022-12-07T10:24:00;10.33;;;4.83;;
438;SDS011;206;48.782;9.252;2022-12-07T10:29:17;5.03;;;4.60;;
438;SDS011;206;48.782;9.252;2022-12-07T10:31:53;4.03;;;2.70;;
438;SDS011;206;48.782;9.252;2022-12-07T10:34:27;5.90;;;4.17;;
438;SDS011;206;48.782;9.252;2022-12-07T10:36:55;5.30;;;3.73;;
438;SDS011;206;48.782;9.252;2022-12-07T10:39:56;3.83;;;3.03;;
438;SDS011;206;48.782;9.252;2022-12-07T10:42:23;5.13;;;2.83;;
438;SDS011;206;48.782;9.252;2022-12-07T10:45:09;13.20;;;4.93;;
438;SDS011;206;48.782;9.252;2022-12-07T11:07:02;4.87;;;2.90;;
438;SDS011;206;48.782;9.252;2022-12-07T11:12:47;5.80;;;3.30;;
438;SDS011;206;48.782;9.252;2022-12-07T11:15:26;5.10;;;3.00;;
438;SDS011;206;48.782;9.252;2022-12-07T11:20:35;3.50;;;3.33;;
438;SDS011;206;48.782;9.252;2022-12-07T11:29:12;4.50;;;3.53;;
438;SDS011;206;48.782;9.252;2022-12-07T11:32:04;5.20;;;4.03;;
438;SDS011;206;48.782;9.252;2022-12-07T11:34:56;3.40;;;3.20;;
438;SDS011;206;48.782;9.252;2022-12-07T11:37:34;4.47;;;3.10;;
438;SDS011;206;48.782;9.252;2022-12-07T11:40:15;5.27;;;4.00;;
438;SDS011;206;48.782;9.252;2022-12-07T11:42:45;3.70;;;2.60;;
438;SDS011;206;48.782;9.252;2022-12-07T11:47:57;4.77;;;2.50;;
438;SDS011;206;48.782;9.252;2022-12-07T11:50:29;2.70;;;2.50;;
438;SDS011;206;48.782;9.252;2022-12-07T11:52:58;3.00;;;2.30;;
438;SDS011;206;48.782;9.252;2022-12-07T11:58:08;4.07;;;3.17;;
438;SDS011;206;48.782;9.252;2022-12-07T12:03:38;5.27;;;3.30;;
438;SDS011;206;48.782;9.252;2022-12-07T12:06:11;4.97;;;3.20;;
438;SDS011;206;48.782;9.252;2022-12-07T12:08:39;5.20;;;3.23;;
438;SDS011;206;48.782;9.252;2022-12-07T12:11:34;6.03;;;3.50;;
438;SDS011;206;48.782;9.252;2022-12-07T12:20:20;4.07;;;3.80;;
438;SDS011;206;48.782;9.252;2022-12-07T12:28:24;6.00;;;4.90;;
438;SDS011;206;48.782;9.252;2022-12-07T12:31:07;5.00;;;4.47;;
438;SDS011;206;48.782;9.252;2022-12-07T12:33:38;7.60;;;4.70;;
438;SDS011;206;48.782;9.252;2022-12-07T12:39:07;8.57;;;4.57;;
438;SDS011;206;48.782;9.252;2022-12-07T12:51:48;6.17;;;4.43;;
438;SDS011;206;48.782;9.252;2022-12-07T12:54:23;5.60;;;4.40;;
438;SDS011;206;48.782;9.252;2022-12-07T12:56:51;10.33;;;4.53;;
438;SDS011;206;48.782;9.252;2022-12-07T12:59:38;10.40;;;6.30;;
438;SDS011;206;48.782;9.252;2022-12-07T13:10:25;5.40;;;5.00;;
438;SDS011;206;48.782;9.252;2022-12-07T13:13:03;7.93;;;5.63;;
438;SDS011;206;48.782;9.252;2022-12-07T13:15:54;16.37;;;5.70;;
438;SDS011;206;48.782;9.252;2022-12-07T13:18:36;14.87;;;10.20;;
438;SDS011;206;48.782;9.252;2022-12-07T13:28:46;8.57;;;8.07;;
438;SDS011;206;48.782;9.252;2022-12-07T13:34:00;27.50;;;7.93;;
438;SDS011;206;48.782;9.252;2022-12-07T13:36:32;23.60;;;7.23;;
438;SDS011;206;48.782;9.252;2022-12-07T13:41:43;7.27;;;5.87;;
438;SDS011;206;48.782;9.252;2022-12-07T13:44:10;24.43;;;8.70;;
438;SDS011;206;48.782;9.252;2022-12-07T13:49:24;9.73;;;6.73;;
438;SDS011;206;48.782;9.252;2022-12-07T13:51:54;20.20;;;12.83;;
438;SDS011;206;48.782;9.252;2022-12-07T13:54:31;11.37;;;8.90;;
438;SDS011;206;48.782;9.252;2022-12-07T13:56:57;9.70;;;7.17;;
438;SDS011;206;48.782;9.252;2022-12-07T13:59:24;6.77;;;6.20;;
438;SDS011;206;48.782;9.252;2022-12-07T14:01:51;10.87;;;6.97;;
438;SDS011;206;48.782;9.252;2022-12-07T14:07:18;10.97;;;6.50;;
438;SDS011;206;48.782;9.252;2022-12-07T14:09:58;12.17;;;8.60;;
438;SDS011;206;48.782;9.252;2022-12-07T14:12:26;33.47;;;15.47;;
438;SDS011;206;48.782;9.252;2022-12-07T14:14:53;12.13;;;6.40;;
438;SDS011;206;48.782;9.252;2022-12-07T14:17:21;6.57;;;5.33;;
438;SDS011;206;48.782;9.252;2022-12-07T14:19:50;7.07;;;6.73;;
438;SDS011;206;48.782;9.252;2022-12-07T14:22:19;14.73;;;10.60;;
438;SDS011;206;48.782;9.252;2022-12-07T14:24:48;15.77;;;10.67;;
438;SDS011;206;48.782;9.252;2022-12-07T14:27:18;7.33;;;5.90;;
438;SDS011;206;48.782;9.252;2022-12-07T14:29:48;13.63;;;6.90;;
438;SDS011;206;48.782;9.252;2022-12-07T14:32:24;7.70;;;5.17;;
438;SDS011;206;48.782;9.252;2022-12-07T14:37:25;5.53;;;4.77;;
438;SDS011;206;48.782;9.252;2022-12-07T14:39:52;5.70;;;5.00;;
438;SDS011;206;48.782;9.252;2022-12-07T14:42:17;6.23;;;4.70;;
438;SDS011;206;48.782;9.252;2022-12-07T14:44:44;8.47;;;4.03;;
438;SDS011;206;48.782;9.252;2022-12-07T14:47:10;12.20;;;5.47;;
438;SDS011;206;48.782;9.252;2022-12-07T14:49:36;6.13;;;5.17;;
438;SDS011;206;48.782;9.252;2022-12-07T14:52:01;4.80;;;4.30;;
438;SDS011;206;48.782;9.252;2022-12-07T14:54:28;7.43;;;6.03;;
438;SDS011;206;48.782;9.252;2022-12-07T14:56:56;9.23;;;6.87;;
438;SDS011;206;48.782;9.252;2022-12-07T14:59:22;8.30;;;6.20;;
438;SDS011;206;48.782;9.252;2022-12-07T15:01:47;6.07;;;5.60;;
438;SDS011;206;48.782;9.252;2022-12-07T15:04:13;8.60;;;5.30;;
438;SDS011;206;48.782;9.252;2022-12-07T15:06:38;11.80;;;5.70;;
438;SDS011;206;48.782;9.252;2022-12-07T15:09:04;11.43;;;5.90;;
438;SDS011;206;48.782;9.252;2022-12-07T15:11:30;8.90;;;5.73;;
438;SDS011;206;48.782;9.252;2022-12-07T15:13:56;5.80;;;5.40;;
438;SDS011;206;48.782;9.252;2022-12-07T15:16:33;6.83;;;5.40;;
438;SDS011;206;48.782;9.252;2022-12-07T15:19:01;9.03;;;6.37;;
438;SDS011;206;48.782;9.252;2022-12-07T15:21:26;8.50;;;5.67;;
438;SDS011;206;48.782;9.252;2022-12-07T15:23:52;11.77;;;6.80;;
438;SDS011;206;48.782;9.252;2022-12-07T15:26:18;8.87;;;5.77;;
438;SDS011;206;48.782;9.252;2022-12-07T15:28:44;8.43;;;5.63;;
438;SDS011;206;48.782;9.252;2022-12-07T15:31:13;7.67;;;5.70;;
438;SDS011;206;48.782;9.252;2022-12-07T15:33:43;11.87;;;5.80;;
438;SDS011;206;48.782;9.252;2022-12-07T15:36:13;7.57;;;5.40;;
438;SDS011;206;48.782;9.252;2022-12-07T15:38:45;7.30;;;5.53;;
438;SDS011;206;48.782;9.252;2022-12-07T15:41:11;8.57;;;5.37;;
438;SDS011;206;48.782;9.252;2022-12-07T15:43:36;5.90;;;5.03;;
438;SDS011;206;48.782;9.252;2022-12-07T15:46:20;7.90;;;5.27;;
438;SDS011;206;48.782;9.252;2022-12-07T15:48:46;8.10;;;5.43;;
438;SDS011;206;48.782;9.252;2022-12-07T15:51:11;7.07;;;5.77;;
438;SDS011;206;48.782;9.252;2022-12-07T15:53:37;9.17;;;7.80;;
438;SDS011;206;48.782;9.252;2022-12-07T15:56:06;7.50;;;7.10;;
438;SDS011;206;48.782;9.252;2022-12-07T15:58:32;9.20;;;7.63;;
438;SDS011;206;48.782;9.252;2022-12-07T16:00:58;13.30;;;7.03;;
438;SDS011;206;48.782;9.252;2022-12-07T16:03:23;13.43;;;6.10;;
438;SDS011;206;48.782;9.252;2022-12-07T16:05:49;9.93;;;7.40;;
438;SDS011;206;48.782;9.252;2022-12-07T16:08:15;9.00;;;6.33;;
438;SDS011;206;48.782;9.252;2022-12-07T16:10:41;8.73;;;6.50;;
438;SDS011;206;48.782;9.252;2022-12-07T16:13:08;8.17;;;6.30;;
438;SDS011;206;48.782;9.252;2022-12-07T16:15:37;9.93;;;7.17;;
438;SDS011;206;48.782;9.252;2022-12-07T16:18:07;9.30;;;6.77;;
438;SDS011;206;48.782;9.252;2022-12-07T16:20:32;6.77;;;6.33;;
438;SDS011;206;48.782;9.252;2022-12-07T16:22:58;6.13;;;5.20;;
438;SDS011;206;48.782;9.252;2022-12-07T16:25:24;8.23;;;6.87;;
438;SDS011;206;48.782;9.252;2022-12-07T16:27:50;9.70;;;6.00;;
438;SDS011;206;48.782;9.252;2022-12-07T16:30:16;10.83;;;7.83;;
438;SDS011;206;48.782;9.252;2022-12-07T16:32:42;9.40;;;6.50;;
438;SDS011;206;48.782;9.252;2022-12-07T16:35:08;10.83;;;7.60;;
438;SDS011;206;48.782;9.252;2022-12-07T16:37:34;12.00;;;10.37;;
438;SDS011;206;48.782;9.252;2022-12-07T16:40:00;9.20;;;6.63;;
438;SDS011;206;48.782;9.252;2022-12-07T16:42:26;12.53;;;7.33;;
438;SDS011;206;48.782;9.252;2022-12-07T16:44:51;7.73;;;6.70;;
438;SDS011;206;48.782;9.252;2022-12-07T16:47:17;7.70;;;6.70;;
438;SDS011;206;48.782;9.252;2022-12-07T16:49:43;11.07;;;6.10;;
438;SDS011;206;48.782;9.252;2022-12-07T16:52:08;7.47;;;6.30;;
438;SDS011;206;48.782;9.252;2022-12-07T16:54:35;17.30;;;6.73;;
438;SDS011;206;48.782;9.252;2022-12-07T16:57:01;8.00;;;6.70;;
438;SDS011;206;48.782;9.252;2022-12-07T16:59:26;6.80;;;6.40;;
438;SDS011;206;48.782;9.252;2022-12-07T17:01:52;9.93;;;7.17;;
438;SDS011;206;48.782;9.252;2022-12-07T17:04:18;10.23;;;7.07;;
438;SDS011;206;48.782;9.252;2022-12-07T17:06:43;11.70;;;8.67;;
438;SDS011;206;48.782;9.252;2022-12-07T17:09:09;10.23;;;7.70;;
438;SDS011;206;48.782;9.252;2022-12-07T17:11:36;11.50;;;8.07;;
438;SDS011;206;48.782;9.252;2022-12-07T17:14:02;13.00;;;8.43;;
438;SDS011;206;48.782;9.252;2022-12-07T17:16:46;10.30;;;7.20;;
438;SDS011;206;48.782;9.252;2022-12-07T17:19:14;15.20;;;7.90;;
438;SDS011;206;48.782;9.252;2022-12-07T17:21:40;9.13;;;6.70;;
438;SDS011;206;48.782;9.252;2022-12-07T17:24:08;19.20;;;9.10;;
438;SDS011;206;48.782;9.252;2022-12-07T17:26:35;12.87;;;9.63;;
438;SDS011;206;48.782;9.252;2022-12-07T17:29:02;15.03;;;10.50;;
438;SDS011;206;48.782;9.252;2022-12-07T17:31:29;10.37;;;7.97;;
438;SDS011;206;48.782;9.252;2022-12-07T17:33:55;10.27;;;7.83;;
438;SDS011;206;48.782;9.252;2022-12-07T17:36:21;12.40;;;10.10;;
438;SDS011;206;48.782;9.252;2022-12-07T17:38:49;21.23;;;9.20;;
438;SDS011;206;48.782;9.252;2022-12-07T17:41:17;17.40;;;11.03;;
438;SDS011;206;48.782;9.252;2022-12-07T17:44:06;17.37;;;16.47;;
438;SDS011;206;48.782;9.252;2022-12-07T17:46:33;13.93;;;9.30;;
438;SDS011;206;48.782;9.252;2022-12-07T17:48:59;11.70;;;9.43;;
438;SDS011;206;48.782;9.252;2022-12-07T17:51:25;9.13;;;7.17;;
438;SDS011;206;48.782;9.252;2022-12-07T17:54:10;10.40;;;6.70;;